createdAt,value
2023-05-09T03:06:10.171Z,98956.25
2023-05-09T03:09:21.203Z,98945.72
2023-05-09T03:12:32.102Z,98934.25
2023-05-09T03:15:43.017Z,98929.56
2023-05-09T03:18:56.304Z,98921.25
2023-05-09T03:22:08.426Z,98922.25
2023-05-09T03:25:26.511Z,98916.50
2023-05-09T03:28:37.842Z,98918.06
2023-05-09T03:31:49.974Z,98910.03
2023-05-09T03:35:00.743Z,98917.00
2023-05-09T03:38:13.310Z,98905.13
2023-05-09T03:41:24.663Z,98902.56
2023-05-09T03:44:36.297Z,98907.47
2023-05-09T03:47:47.517Z,98901.63
2023-05-09T03:50:59.057Z,98893.31
2023-05-09T03:54:13.670Z,98890.34
2023-05-09T03:57:24.659Z,98885.63
2023-05-09T04:00:39.332Z,98878.47
2023-05-09T04:03:55.158Z,98886.09
2023-05-09T04:07:06.169Z,98888.34
2023-05-09T04:10:18.382Z,98889.97
2023-05-09T04:13:31.385Z,98889.97
2023-05-09T04:16:44.938Z,98894.19
2023-05-09T04:19:56.406Z,98894.00
2023-05-09T04:23:07.318Z,98897.09
2023-05-09T04:26:19.599Z,98901.97
2023-05-09T04:29:32.943Z,98896.53
2023-05-09T04:32:46.265Z,98888.22
2023-05-09T04:35:57.932Z,98893.72
2023-05-09T04:39:10.481Z,98888.19
2023-05-09T04:42:25.394Z,98886.78
2023-05-09T04:45:36.176Z,98881.06
2023-05-09T04:48:47.079Z,98880.44
2023-05-09T04:51:57.997Z,98879.16
2023-05-09T04:55:09.808Z,98867.94
2023-05-09T04:58:26.775Z,98859.78
2023-05-09T05:01:40.083Z,98860.78
2023-05-09T05:47:49.599Z,98827.00
2023-05-09T05:51:01.801Z,98831.09
2023-05-09T05:54:20.920Z,98830.72
2023-05-09T05:57:32.002Z,98839.19
2023-05-09T06:00:43.251Z,98837.94
2023-05-09T06:03:56.258Z,98839.50
2023-05-09T06:07:11.075Z,98827.38
2023-05-09T06:10:22.363Z,98824.66
2023-05-09T06:13:33.182Z,98821.59
2023-05-09T06:16:49.041Z,98819.28
2023-05-09T06:20:01.150Z,98816.69
2023-05-09T06:23:12.465Z,98808.00
2023-05-09T06:26:24.480Z,98795.78
2023-05-09T06:29:36.396Z,98790.50
2023-05-09T06:32:47.438Z,98792.44
2023-05-09T06:36:00.750Z,98796.66
2023-05-09T06:39:12.823Z,98800.84
2023-05-09T06:42:23.525Z,98787.50
2023-05-09T06:45:34.525Z,98795.31
2023-05-09T06:48:46.152Z,98795.31
2023-05-09T06:51:58.999Z,98778.00
2023-05-09T06:55:11.669Z,98775.91
2023-05-09T06:58:23.523Z,98770.88
2023-05-09T07:01:34.729Z,98771.56
2023-05-09T07:04:45.848Z,98767.13
2023-05-09T07:07:58.250Z,98771.16
2023-05-09T07:11:08.822Z,98770.13
2023-05-09T07:14:20.684Z,98757.81
2023-05-09T07:17:31.559Z,98750.69
2023-05-09T07:20:42.417Z,98747.75
2023-05-09T07:23:54.535Z,98734.59
2023-05-09T07:27:06.038Z,98740.75
2023-05-09T07:30:17.190Z,98737.19
2023-05-09T07:33:28.064Z,98733.88
2023-05-09T07:39:52.112Z,98721.63
2023-05-09T07:43:02.905Z,98712.34
2023-05-09T07:46:13.863Z,98708.28
2023-05-09T07:49:24.853Z,98713.13
2023-05-09T07:52:35.737Z,98708.56
2023-05-09T07:55:50.071Z,98696.91
2023-05-09T07:59:00.943Z,98698.75
2023-05-09T08:02:11.881Z,98698.56
2023-05-09T08:05:22.714Z,98698.22
2023-05-09T08:08:33.534Z,98698.50
2023-05-09T08:11:45.998Z,98700.91
2023-05-09T08:14:56.703Z,98689.88
2023-05-09T08:18:07.928Z,98692.91
2023-05-09T08:21:20.853Z,98678.66
2023-05-09T08:24:33.732Z,98681.00
2023-05-09T08:27:46.451Z,98672.88
2023-05-09T08:30:58.698Z,98669.31
2023-05-09T08:34:11.359Z,98663.59
2023-05-09T08:37:22.753Z,98663.84
2023-05-09T08:40:38.276Z,98667.00
2023-05-09T08:43:51.419Z,98670.66
2023-05-09T08:47:03.661Z,98665.47
2023-05-09T08:50:15.988Z,98665.53
2023-05-09T08:53:27.181Z,98661.31
2023-05-09T08:56:39.575Z,98651.97
2023-05-09T08:59:53.802Z,98649.66
2023-05-09T09:03:05.161Z,98642.53
2023-05-09T09:06:17.354Z,98649.66
2023-05-09T09:09:29.625Z,98632.06
2023-05-09T09:12:41.987Z,98630.88
2023-05-09T09:15:56.099Z,98620.28
2023-05-09T09:19:10.181Z,98619.06
2023-05-09T09:22:21.650Z,98617.34
2023-05-09T09:25:32.296Z,98615.09
2023-05-09T09:28:44.603Z,98613.22
2023-05-09T09:31:57.274Z,98602.31
2023-05-09T09:35:09.401Z,98595.88
2023-05-09T09:38:21.322Z,98590.97
2023-05-09T09:41:33.911Z,98581.47
2023-05-09T09:44:44.441Z,98583.50
2023-05-09T09:47:56.435Z,98577.59
2023-05-09T09:51:11.949Z,98569.53
2023-05-09T09:54:23.336Z,98556.19
2023-05-09T09:57:36.481Z,98550.63
2023-05-09T10:00:47.490Z,98538.00
2023-05-09T10:03:59.473Z,98542.03
2023-05-09T10:07:15.159Z,98537.69
2023-05-09T10:10:28.779Z,98532.19
2023-05-09T10:13:39.755Z,98530.94
2023-05-09T10:16:51.806Z,98521.47
2023-05-09T10:20:06.873Z,98520.91
2023-05-09T10:23:19.995Z,98519.81
2023-05-09T10:26:37.830Z,98515.38
2023-05-09T10:29:53.437Z,98521.09
2023-05-09T10:33:05.764Z,98522.88
2023-05-09T10:36:20.893Z,98514.22
2023-05-09T10:39:32.684Z,98517.16
2023-05-09T10:42:44.368Z,98507.31
2023-05-09T10:45:56.193Z,98504.34
2023-05-09T10:49:08.000Z,98494.03
2023-05-09T10:52:22.814Z,98484.09
2023-05-09T10:55:38.938Z,98485.06
2023-05-09T10:58:49.801Z,98491.97
2023-05-09T11:02:03.199Z,98473.97
2023-05-09T11:05:16.184Z,98467.38
2023-05-09T11:08:30.111Z,98471.72
2023-05-09T11:11:53.680Z,98458.75
2023-05-09T11:15:09.298Z,98465.50
2023-05-09T11:18:20.478Z,98456.19
2023-05-09T11:21:31.267Z,98459.19
2023-05-09T11:24:47.824Z,98456.34
2023-05-09T11:28:02.318Z,98461.31
2023-05-09T11:31:15.105Z,98448.38
2023-05-09T11:34:26.098Z,98444.66
2023-05-09T11:37:45.576Z,98441.09
2023-05-09T11:40:58.163Z,98439.63
2023-05-09T11:44:16.113Z,98430.53
2023-05-09T11:47:29.042Z,98434.41
2023-05-09T11:50:41.554Z,98429.44
2023-05-09T11:53:54.377Z,98421.88
2023-05-09T11:57:07.232Z,98411.91
2023-05-09T12:00:19.392Z,98411.28
2023-05-09T12:03:31.153Z,98404.59
2023-05-09T12:06:43.288Z,98395.09
2023-05-09T12:09:55.120Z,98391.19
2023-05-09T12:13:07.549Z,98385.69
2023-05-09T12:16:19.327Z,98379.66
2023-05-09T12:19:30.549Z,98375.41
2023-05-09T12:22:44.895Z,98377.28
2023-05-09T12:25:57.504Z,98369.94
2023-05-09T12:29:15.968Z,98367.81
2023-05-09T12:32:31.818Z,98360.97
2023-05-09T12:35:47.050Z,98357.81
2023-05-09T12:38:58.781Z,98358.94
2023-05-09T12:42:14.281Z,98355.66
2023-05-09T12:45:26.561Z,98344.47
2023-05-09T12:48:40.217Z,98336.88
2023-05-09T12:51:51.415Z,98340.41
2023-05-09T12:55:08.012Z,98331.03
2023-05-09T12:58:20.645Z,98325.94
2023-05-09T13:01:32.604Z,98320.41
2023-05-09T13:04:43.387Z,98322.63
2023-05-09T13:07:58.405Z,98310.81
2023-05-09T13:11:16.657Z,98310.81
2023-05-09T13:14:28.840Z,98291.84
2023-05-09T13:17:40.920Z,98293.97
2023-05-09T13:20:52.698Z,98283.09
2023-05-09T13:24:03.170Z,98281.56
2023-05-09T13:27:14.094Z,98281.97
2023-05-09T13:30:25.116Z,98273.91
2023-05-09T13:33:37.592Z,98270.59
2023-05-09T13:36:48.449Z,98274.22
2023-05-09T13:39:59.609Z,98274.44
2023-05-09T13:43:10.502Z,98259.41
2023-05-09T13:46:21.733Z,98255.97
2023-05-09T13:49:33.763Z,98253.66
2023-05-09T13:52:46.125Z,98246.84
2023-05-09T13:55:57.884Z,98246.09
2023-05-09T13:59:08.678Z,98240.63
2023-05-09T14:02:18.990Z,98236.81
2023-05-09T14:05:32.960Z,98234.00
2023-05-09T14:08:43.614Z,98223.00
2023-05-09T14:11:55.450Z,98223.84
2023-05-09T14:15:06.849Z,98211.78
2023-05-09T14:18:20.812Z,98214.16
2023-05-09T14:21:33.517Z,98216.56
2023-05-09T14:24:43.872Z,98204.94
2023-05-09T14:27:55.554Z,98201.94
2023-05-09T14:31:07.175Z,98200.94
2023-05-09T14:34:18.100Z,98198.47
2023-05-09T14:37:30.772Z,98192.47
2023-05-09T14:40:41.571Z,98181.22
2023-05-09T14:43:53.527Z,98177.72
2023-05-09T14:47:04.504Z,98174.16
2023-05-09T14:50:16.442Z,98170.56
2023-05-09T14:53:30.000Z,98162.59
2023-05-09T14:56:41.376Z,98159.94
2023-05-09T14:59:52.806Z,98143.56
2023-05-09T15:03:03.814Z,98142.06
2023-05-09T15:06:15.521Z,98136.47
2023-05-09T15:09:28.242Z,98132.19
2023-05-09T15:12:38.971Z,98127.00
2023-05-09T15:15:49.776Z,98129.59
2023-05-09T15:19:00.485Z,98122.50
2023-05-09T15:22:11.499Z,98119.81
2023-05-09T15:25:23.837Z,98117.28
2023-05-09T15:28:35.844Z,98110.72
2023-05-09T15:31:46.608Z,98113.91
2023-05-09T15:34:57.503Z,98110.25
2023-05-09T15:38:12.207Z,98109.91
2023-05-09T15:41:24.671Z,98117.66
2023-05-09T15:44:36.078Z,98120.63
2023-05-09T15:47:46.917Z,98114.34
2023-05-09T15:50:57.935Z,98109.06
2023-05-09T15:54:08.862Z,98116.03
2023-05-09T15:57:21.246Z,98122.72
2023-05-09T16:00:32.533Z,98132.50
2023-05-09T16:03:43.445Z,98130.59
2023-05-09T16:06:55.566Z,98134.19
2023-05-09T16:10:07.337Z,98131.88
2023-05-09T16:13:19.369Z,98132.47
2023-05-09T16:16:30.297Z,98130.34
2023-05-09T16:19:41.221Z,98133.38
2023-05-09T16:22:52.321Z,98129.31
2023-05-09T16:26:03.204Z,98122.84
2023-05-09T16:29:15.336Z,98109.69
2023-05-09T16:32:26.272Z,98108.19
2023-05-09T16:35:37.505Z,98106.88
2023-05-09T16:38:48.968Z,98104.16
2023-05-09T16:42:00.498Z,98099.31
2023-05-09T16:45:12.713Z,98097.97
2023-05-09T16:48:24.597Z,98090.94
2023-05-09T16:51:36.039Z,98100.50
2023-05-09T16:54:47.120Z,98096.44
2023-05-09T16:57:58.562Z,98105.94
2023-05-09T17:01:11.670Z,98099.88
2023-05-09T17:04:22.360Z,98097.16
2023-05-09T17:07:33.322Z,98096.19
2023-05-09T17:10:44.537Z,98086.84
2023-05-09T17:13:55.480Z,98093.94
2023-05-09T17:17:08.043Z,98093.94
2023-05-09T17:20:19.489Z,98098.34
2023-05-09T17:23:30.720Z,98094.44
2023-05-09T17:26:42.301Z,98092.41
2023-05-09T17:29:53.569Z,98094.13
2023-05-09T17:33:05.660Z,98085.13
2023-05-09T17:36:16.492Z,98082.34
2023-05-09T17:39:27.428Z,98074.47
2023-05-09T17:42:38.767Z,98069.09
2023-05-09T17:45:50.108Z,98068.16
2023-05-09T17:49:02.695Z,98072.19
2023-05-09T17:52:13.773Z,98059.16
2023-05-09T17:55:24.697Z,98050.31
2023-05-09T17:58:35.656Z,98043.34
2023-05-09T18:01:46.664Z,98041.41
2023-05-09T18:04:58.980Z,98048.84
2023-05-09T18:08:09.617Z,98037.59
2023-05-09T18:11:20.961Z,98040.88
2023-05-09T18:14:31.796Z,98031.25
2023-05-09T18:17:43.061Z,98038.16
2023-05-09T18:20:55.174Z,98042.25
2023-05-09T18:24:06.386Z,98033.94
2023-05-09T18:27:17.319Z,98032.28
2023-05-09T18:30:28.845Z,98037.94
2023-05-09T18:33:40.305Z,98041.47
2023-05-09T18:36:52.717Z,98036.44
2023-05-09T18:40:03.559Z,98037.47
2023-05-09T18:43:14.367Z,98046.09
2023-05-09T18:46:28.006Z,98049.44
2023-05-09T18:49:39.020Z,98043.88
2023-05-09T18:52:51.200Z,98042.13
2023-05-09T18:56:02.302Z,98048.63
2023-05-09T18:59:16.433Z,98043.47
2023-05-09T19:02:28.242Z,98041.53
2023-05-09T19:05:40.578Z,98034.22
2023-05-09T19:08:54.539Z,98037.47
2023-05-09T19:12:07.138Z,98034.22
2023-05-09T19:15:21.210Z,98042.63
2023-05-09T19:18:34.063Z,98040.59
2023-05-09T19:21:47.996Z,98043.09
2023-05-09T19:25:02.827Z,98045.34
2023-05-09T19:28:15.397Z,98050.25
2023-05-09T19:31:30.646Z,98038.13
2023-05-09T19:34:43.307Z,98048.25
2023-05-09T19:37:57.963Z,98046.97
2023-05-09T19:41:13.398Z,98040.31
2023-05-09T19:44:26.844Z,98043.72
2023-05-09T19:47:39.586Z,98055.56
2023-05-09T19:50:52.775Z,98053.09
2023-05-09T19:54:05.543Z,98058.28
2023-05-09T19:57:19.946Z,98040.91
2023-05-09T20:00:33.237Z,98053.63
2023-05-09T20:03:47.099Z,98043.41
2023-05-09T20:06:59.533Z,98036.41
2023-05-09T20:10:13.489Z,98037.47
2023-05-09T20:13:27.414Z,98040.03
